KN6KS Weather Reports


Display with metric or nautical units.
time (UTC)temp
F
wind
direction
speed
MPH
gust
MPH
rain 1hr
in
rain 24hr
in
rain mn
in
humidity
%
barometer
mb
20220528014835 72 251 14.0 17.0 0.00 0.00 0.00 39 1012.2
20220528014334 73 219 21.0 24.0 0.00 0.00 0.00 36 1012.2
20220528013832 73 237 13.0 16.0 0.00 0.00 0.00 35 1012.5
20220528013331 73 263 11.0 13.0 0.00 0.00 0.00 36 1012.2
20220528012829 74 238 21.0 25.0 0.00 0.00 0.00 37 1012.5
20220528012327 74 245 20.0 26.0 0.00 0.00 0.00 35 1012.2
20220528011826 75 231 15.0 20.0 0.00 0.00 0.00 35 1012.4
20220528011326 74 233 21.0 33.0 0.00 0.00 0.00 34 1012.4
20220528010826 75 231 30.0 38.0 0.00 0.00 0.00 34 1012.2
20220528010325 75 227 29.0 37.0 0.00 0.00 0.00 35 1012.1
20220528005823 75 255 18.0 27.0 0.00 0.00 0.00 35 1012.2
20220528005322 76 247 44.0 55.0 0.00 0.00 0.00 34 1012.2
20220528004823 75 210 29.0 37.0 0.00 0.00 0.00 34 1012.2
20220528004321 75 232 37.0 48.0 0.00 0.00 0.00 34 1012.0
20220528003820 75 240 24.0 30.0 0.00 0.00 0.00 33 1012.2
20220528003319 76 235 34.0 46.0 0.00 0.00 0.00 33 1012.1
20220528002820 76 229 32.0 35.0 0.00 0.00 0.00 32 1012.5
20220528002318 76 205 28.0 33.0 0.00 0.00 0.00 32 1012.5
20220528001817 77 232 24.0 27.0 0.00 0.00 0.00 33 1012.8
20220528001317 77 230 29.0 37.0 0.00 0.00 0.00 31 1012.5
20220528000815 78 239 30.0 34.0 0.00 0.00 0.00 31 1012.5
20220528000313 77 245 32.0 35.0 0.00 0.00 0.00 30 1012.6
20220527235812 77 229 18.0 22.0 0.00 0.00 0.00 32 1012.6
20220527235310 77 243 24.0 29.0 0.00 0.00 0.00 30 1012.6
20220527234810 77 216 24.0 30.0 0.00 0.00 0.00 29 1012.6
20220527234308 78 228 26.0 27.0 0.00 0.00 0.00 28 1012.9
20220527233807 78 231 31.0 38.0 0.00 0.00 0.00 29 1013.0
20220527233306 77 237 33.0 45.0 0.00 0.00 0.00 29 1013.0
20220527232805 78 245 18.0 20.0 0.00 0.00 0.00 29 1012.9
20220527232304 77 237 13.0 15.0 0.00 0.00 0.00 30 1013.0
20220527231802 77 233 17.0 21.0 0.00 0.00 0.00 30 1012.9
20220527231301 77 266 15.0 20.0 0.00 0.00 0.00 30 1013.1
20220527230800 78 198 16.0 20.0 0.00 0.00 0.00 30 1013.2
20220527230259 77 215 12.0 14.0 0.00 0.00 0.00 30 1013.0
20220527225757 77 243 17.0 23.0 0.00 0.00 0.00 30 1013.2
20220527225256 77 240 17.0 21.0 0.00 0.00 0.00 30 1013.2
20220527224754 76 231 25.0 29.0 0.00 0.00 0.00 30 1013.3
20220527224252 77 267 28.0 32.0 0.00 0.00 0.00 29 1013.3
20220527223751 77 233 37.0 46.0 0.00 0.00 0.00 30 1013.3
20220527223248 77 260 23.0 30.0 0.00 0.00 0.00 29 1013.4
20220527222748 77 235 32.0 40.0 0.00 0.00 0.00 29 1013.4
20220527222247 78 230 36.0 48.0 0.00 0.00 0.00 27 1013.9
20220527221746 78 248 22.0 26.0 0.00 0.00 0.00 28 1013.9
20220527221246 78 261 22.0 30.0 0.00 0.00 0.00 26 1013.6
20220527220744 77 237 17.0 20.0 0.00 0.00 0.00 27 1013.9
20220527220243 78 250 11.0 13.0 0.00 0.00 0.00 27 1013.9
20220527215741 78 212 12.0 16.0 0.00 0.00 0.00 28 1014.0
20220527215241 77 228 15.0 21.0 0.00 0.00 0.00 27 1014.1
20220527214740 79 240 15.0 17.0 0.00 0.00 0.00 27 1014.2
20220527214239 79 202 14.0 17.0 0.00 0.00 0.00 27 1014.1
20220527213739 78 230 12.0 20.0 0.00 0.00 0.00 27 1014.3
20220527213237 79 173 9.0 13.0 0.00 0.00 0.00 27 1014.3
20220527212735 79 291 14.0 17.0 0.00 0.00 0.00 28 1014.6
20220527212235 79 267 9.0 13.0 0.00 0.00 0.00 28 1014.6
20220527211734 80 250 5.0 6.0 0.00 0.00 0.00 28 1014.4
20220527211234 79 230 11.0 15.0 0.00 0.00 0.00 28 1014.7
20220527210735 79 219 5.0 6.0 0.00 0.00 0.00 28 1014.5
20220527210233 80 255 9.0 10.0 0.00 0.00 0.00 28 1014.6
20220527205732 80 293 3.0 5.0 0.00 0.00 0.00 28 1014.4
20220527205231 80 196 12.0 17.0 0.00 0.00 0.00 27 1014.7
20220527204729 79 247 9.0 13.0 0.00 0.00 0.00 27 1014.1
20220527204229 79 219 10.0 14.0 0.00 0.00 0.00 27 1014.3
20220527203728 80 227 9.0 14.0 0.00 0.00 0.00 27 1014.3
20220527203227 80 277 13.0 17.0 0.00 0.00 0.00 28 1014.3
20220527202725 80 254 14.0 16.0 0.00 0.00 0.00 27 1014.4
20220527202224 80 237 17.0 22.0 0.00 0.00 0.00 27 1014.6
20220527201723 80 252 10.0 11.0 0.00 0.00 0.00 27 1014.5
20220527201223 80 242 15.0 17.0 0.00 0.00 0.00 28 1014.6
20220527200721 80 217 9.0 11.0 0.00 0.00 0.00 29 1014.4
20220527200220 80 233 13.0 15.0 0.00 0.00 0.00 28 1014.5
20220527195720 80 237 12.0 13.0 0.00 0.00 0.00 29 1014.4
20220527195218 80 239 23.0 30.0 0.00 0.00 0.00 28 1014.4
20220527194718 80 207 15.0 22.0 0.00 0.00 0.00 29 1014.7
20220527194217 79 223 20.0 25.0 0.00 0.00 0.00 29 1014.3
20220527193716 80 228 25.0 31.0 0.00 0.00 0.00 29 1014.2
20220527193214 80 230 14.0 18.0 0.00 0.00 0.00 29 1014.1
20220527192715 80 228 19.0 26.0 0.00 0.00 0.00 27 1014.3
20220527192214 80 193 20.0 27.0 0.00 0.00 0.00 28 1014.1
20220527191713 80 217 16.0 27.0 0.00 0.00 0.00 28 1014.3
20220527191212 80 233 15.0 21.0 0.00 0.00 0.00 28 1014.2
20220527190711 80 209 20.0 23.0 0.00 0.00 0.00 27 1014.2
20220527190210 80 220 15.0 17.0 0.00 0.00 0.00 28 1014.4
20220527185711 80 190 15.0 24.0 0.00 0.00 0.00 28 1014.3
20220527185209 80 211 19.0 23.0 0.00 0.00 0.00 27 1014.4
20220527184707 80 243 15.0 17.0 0.00 0.00 0.00 26 1014.4
20220527184208 80 245 26.0 38.0 0.00 0.00 0.00 26 1014.3
20220527183706 80 226 12.0 17.0 0.00 0.00 0.00 27 1014.4
20220527183206 80 206 8.0 9.0 0.00 0.00 0.00 28 1014.2
20220527182704 81 229 9.0 13.0 0.00 0.00 0.00 27 1014.4
20220527182203 81 190 12.0 15.0 0.00 0.00 0.00 25 1014.2
20220527181701 81 260 12.0 16.0 0.00 0.00 0.00 23 1014.4
20220527181200 82 264 6.0 7.0 0.00 0.00 0.00 21 1014.4
20220527180658 82 233 6.0 8.0 0.00 0.00 0.00 23 1014.7
20220527180159 83 190 3.0 6.0 0.00 0.00 0.00 23 1014.4
20220527175657 80 242 7.0 10.0 0.00 0.00 0.00 26 1014.6
20220527175156 80 200 4.0 5.0 0.00 0.00 0.00 27 1014.7
20220527174655 79 216 11.0 14.0 0.00 0.00 0.00 28 1014.6
20220527174153 78 250 7.0 7.0 0.00 0.00 0.00 28 1014.7
20220527173653 79 223 9.0 10.0 0.00 0.00 0.00 28 1014.9
20220527173151 79 278 11.0 13.0 0.00 0.00 0.00 27 1014.8
20220527172652 78 253 4.0 6.0 0.00 0.00 0.00 28 1014.9
20220527172150 78 246 6.0 10.0 0.00 0.00 0.00 27 1014.8
20220527171648 79 251 7.0 9.0 0.00 0.00 0.00 28 1014.9
20220527171147 79 211 5.0 7.0 0.00 0.00 0.00 27 1015.0
20220527170645 80 257 2.0 2.0 0.00 0.00 0.00 26 1015.0
20220527170145 78 84 3.0 5.0 0.00 0.00 0.00 26 1014.6
20220527165646 77 253 3.0 3.0 0.00 0.00 0.00 28 1014.8
20220527165145 76 277 8.0 10.0 0.00 0.00 0.00 28 1014.9
20220527164644 77 229 5.0 8.0 0.00 0.00 0.00 28 1014.7
20220527164142 77 279 10.0 11.0 0.00 0.00 0.00 27 1014.8
20220527163641 77 327 7.0 8.0 0.00 0.00 0.00 28 1014.8
20220527163142 76 231 8.0 11.0 0.00 0.00 0.00 28 1014.9
20220527162640 77 273 5.0 6.0 0.00 0.00 0.00 28 1014.9
20220527162138 76 295 5.0 7.0 0.00 0.00 0.00 28 1015.0
20220527161637 76 269 5.0 6.0 0.00 0.00 0.00 28 1014.9
20220527161136 75 250 3.0 3.0 0.00 0.00 0.00 28 1015.2
20220527160634 75 248 7.0 8.0 0.00 0.00 0.00 28 1015.0
20220527160134 75 253 8.0 9.0 0.00 0.00 0.00 28 1014.9
20220527155633 77 325 3.0 5.0 0.00 0.00 0.00 27 1015.0
20220527155131 75 222 1.0 1.0 0.00 0.00 0.00 27 1015.2
20220527154630 75 173 0.0 1.0 0.00 0.00 0.00 27 1015.0
20220527154131 75 273 4.0 5.0 0.00 0.00 0.00 28 1014.9
20220527153630 74 329 5.0 6.0 0.00 0.00 0.00 28 1015.2
20220527153129 75 263 5.0 6.0 0.00 0.00 0.00 28 1014.8
20220527152628 76 115 1.0 2.0 0.00 0.00 0.00 28 1014.7
20220527152127 76 81 3.0 3.0 0.00 0.00 0.00 28 1014.8
20220527151625 76 233 0.0 0.0 0.00 0.00 0.00 28 1014.6
20220527151125 75 259 0.0 1.0 0.00 0.00 0.00 28 1014.7
20220527150623 75 171 2.0 2.0 0.00 0.00 0.00 28 1014.5
20220527150122 74 203 2.0 2.0 0.00 0.00 0.00 27 1014.5
20220527145621 74 192 4.0 5.0 0.00 0.00 0.00 29 1014.5
20220527145121 74 155 4.0 5.0 0.00 0.00 0.00 28 1014.3
20220527144620 74 104 3.0 5.0 0.00 0.00 0.00 27 1014.3
20220527144118 74 239 1.0 1.0 0.00 0.00 0.00 26 1014.3
20220527143616 74 167 4.0 5.0 0.00 0.00 0.00 27 1014.2
20220527143115 73 235 1.0 2.0 0.00 0.00 0.00 27 1014.4
20220527142614 73 224 2.0 2.0 0.00 0.00 0.00 27 1014.2
20220527142113 73 333 6.0 7.0 0.00 0.00 0.00 25 1014.4
20220527141612 73 250 0.0 1.0 0.00 0.00 0.00 26 1014.1
20220527141112 73 315 1.0 2.0 0.00 0.00 0.00 25 1014.0
20220527140611 72 270 4.0 5.0 0.00 0.00 0.00 26 1014.4
20220527140112 73 267 7.0 7.0 0.00 0.00 0.00 26 1014.5
20220527135610 73 252 2.0 3.0 0.00 0.00 0.00 23 1014.1
20220527135109 73 233 3.0 5.0 0.00 0.00 0.00 26 1014.2
20220527134608 72 278 1.0 1.0 0.00 0.00 0.00 24 1014.2
20220527134108 72 218 1.0 1.0 0.00 0.00 0.00 25 1014.2
20220527133607 72 259 4.0 5.0 0.00 0.00 0.00 25 1014.0
20220527133107 72 141 5.0 6.0 0.00 0.00 0.00 25 1014.1
20220527132608 71 347 1.0 2.0 0.00 0.00 0.00 28 1014.2
20220527132106 70 30 3.0 3.0 0.00 0.00 0.00 29 1014.2
20220527131604 71 60 2.0 3.0 0.00 0.00 0.00 28 1014.0
20220527131105 70 117 2.0 3.0 0.00 0.00 0.00 30 1014.0
20220527130604 70 179 2.0 2.0 0.00 0.00 0.00 28 1013.9
20220527130105 70 359 4.0 6.0 0.00 0.00 0.00 27 1013.8
20220527125605 70 5 4.0 6.0 0.00 0.00 0.00 28 1013.6
20220527125104 69 37 7.0 8.0 0.00 0.00 0.00 31 1014.0
20220527124602 69 91 2.0 2.0 0.00 0.00 0.00 29 1013.9
20220527124101 69 330 3.0 3.0 0.00 0.00 0.00 31 1013.9
20220527123600 68 206 4.0 6.0 0.00 0.00 0.00 32 1014.0
20220527123059 68 228 10.0 13.0 0.00 0.00 0.00 34 1014.0
20220527122558 67 240 6.0 8.0 0.00 0.00 0.00 34 1013.8
20220527122056 68 247 7.0 9.0 0.00 0.00 0.00 34 1013.9
20220527121555 68 223 11.0 13.0 0.00 0.00 0.00 34 1014.0
20220527121055 67 223 12.0 16.0 0.00 0.00 0.00 35 1013.6
20220527120553 68 233 11.0 11.0 0.00 0.00 0.00 34 1013.8
20220527120052 68 228 11.0 11.0 0.00 0.00 0.00 33 1013.9
20220527115551 67 230 14.0 20.0 0.00 0.00 0.00 33 1013.8
20220527115049 67 215 13.0 16.0 0.00 0.00 0.00 33 1014.0
20220527114549 67 229 12.0 15.0 0.00 0.00 0.00 33 1013.9
20220527114047 67 220 6.0 7.0 0.00 0.00 0.00 33 1013.8
20220527113546 67 221 11.0 16.0 0.00 0.00 0.00 32 1013.9
20220527113045 68 235 10.0 15.0 0.00 0.00 0.00 32 1014.0
20220527112543 68 214 9.0 11.0 0.00 0.00 0.00 31 1013.9
20220527112044 68 226 11.0 13.0 0.00 0.00 0.00 31 1013.9
20220527111542 67 216 11.0 17.0 0.00 0.00 0.00 31 1013.9
20220527111041 67 203 10.0 13.0 0.00 0.00 0.00 31 1013.9
20220527110539 67 240 10.0 14.0 0.00 0.00 0.00 31 1014.2
20220527110038 67 245 8.0 15.0 0.00 0.00 0.00 31 1013.9
20220527105538 67 211 9.0 11.0 0.00 0.00 0.00 31 1013.9
20220527105037 67 214 11.0 13.0 0.00 0.00 0.00 31 1013.8
20220527104536 67 250 13.0 17.0 0.00 0.00 0.00 31 1013.6
20220527104035 68 210 11.0 13.0 0.00 0.00 0.00 30 1014.0
20220527103533 68 223 11.0 13.0 0.00 0.00 0.00 29 1013.6
20220527103032 68 210 10.0 13.0 0.00 0.00 0.00 29 1014.0
20220527102530 68 224 13.0 15.0 0.00 0.00 0.00 28 1014.0
20220527102029 68 229 13.0 15.0 0.00 0.00 0.00 27 1013.9
20220527101528 68 215 12.0 14.0 0.00 0.00 0.00 26 1014.0
20220527101026 69 233 11.0 14.0 0.00 0.00 0.00 26 1013.9
20220527100525 69 209 9.0 13.0 0.00 0.00 0.00 25 1014.2
20220527100023 69 208 11.0 13.0 0.00 0.00 0.00 24 1014.0
20220527095522 69 209 11.0 13.0 0.00 0.00 0.00 25 1014.2
20220527095022 69 237 13.0 15.0 0.00 0.00 0.00 25 1014.2
20220527094520 69 235 13.0 15.0 0.00 0.00 0.00 25 1014.2
20220527094020 69 237 14.0 17.0 0.00 0.00 0.00 25 1014.1
20220527093518 69 231 11.0 14.0 0.00 0.00 0.00 25 1014.2
20220527093019 70 256 8.0 9.0 0.00 0.00 0.00 24 1014.3
20220527092519 70 229 6.0 8.0 0.00 0.00 0.00 24 1014.3
20220527092017 70 229 7.0 8.0 0.00 0.00 0.00 23 1014.3
20220527091516 70 229 8.0 9.0 0.00 0.00 0.00 23 1014.6
20220527091015 72 241 9.0 10.0 0.00 0.00 0.00 20 1014.4
20220527090513 71 243 6.0 7.0 0.00 0.00 0.00 20 1014.2
20220527090013 74 227 9.0 10.0 0.00 0.00 0.00 18 1014.3
20220527085513 74 174 10.0 10.0 0.00 0.00 0.00 17 1014.2
20220527085012 74 196 6.0 7.0 0.00 0.00 0.00 17 1014.3
20220527084510 74 179 10.0 14.0 0.00 0.00 0.00 17 1014.3
20220527084008 73 186 7.0 9.0 0.00 0.00 0.00 17 1014.3
20220527083507 69 198 3.0 5.0 0.00 0.00 0.00 24 1014.5
20220527083006 73 243 9.0 13.0 0.00 0.00 0.00 20 1014.6
20220527082505 69 260 3.0 5.0 0.00 0.00 0.00 22 1014.5
20220527082005 69 274 5.0 6.0 0.00 0.00 0.00 24 1014.6
20220527081504 69 251 5.0 6.0 0.00 0.00 0.00 22 1014.5
20220527081004 70 279 3.0 8.0 0.00 0.00 0.00 21 1014.6
20220527080503 70 291 4.0 5.0 0.00 0.00 0.00 21 1014.6
20220527080004 70 258 2.0 3.0 0.00 0.00 0.00 21 1014.6
20220527075502 71 285 3.0 5.0 0.00 0.00 0.00 18 1014.7
20220527075001 71 247 7.0 8.0 0.00 0.00 0.00 17 1014.5
20220527074459 73 239 5.0 6.0 0.00 0.00 0.00 16 1014.6
20220527073959 73 231 8.0 10.0 0.00 0.00 0.00 15 1014.4
20220527073457 73 262 11.0 13.0 0.00 0.00 0.00 15 1014.6
20220527072957 72 219 12.0 14.0 0.00 0.00 0.00 15 1014.4
20220527072456 72 232 14.0 17.0 0.00 0.00 0.00 16 1014.4
20220527071956 72 226 9.0 10.0 0.00 0.00 0.00 16 1014.5
20220527071455 72 228 14.0 17.0 0.00 0.00 0.00 16 1014.7
20220527070954 72 225 12.0 14.0 0.00 0.00 0.00 16 1014.5
20220527070452 72 220 15.0 20.0 0.00 0.00 0.00 16 1014.5
20220527065951 73 241 15.0 21.0 0.00 0.00 0.00 16 1014.6
20220527065449 73 238 18.0 24.0 0.00 0.00 0.00 15 1014.5
20220527064949 72 243 5.0 7.0 0.00 0.00 0.00 16 1014.7
20220527064447 72 234 11.0 13.0 0.00 0.00 0.00 16 1014.7
20220527063946 71 237 8.0 10.0 0.00 0.00 0.00 17 1014.9
20220527063445 71 250 10.0 13.0 0.00 0.00 0.00 19 1015.0
20220527062944 71 243 7.0 8.0 0.00 0.00 0.00 18 1015.3
20220527062442 70 257 5.0 6.0 0.00 0.00 0.00 20 1015.0
20220527061940 69 203 2.0 2.0 0.00 0.00 0.00 24 1015.4
20220527061440 68 225 2.0 2.0 0.00 0.00 0.00 26 1015.3
20220527060939 67 325 4.0 5.0 0.00 0.00 0.00 29 1015.4
20220527060437 67 333 3.0 5.0 0.00 0.00 0.00 33 1015.5
20220527055937 66 305 5.0 6.0 0.00 0.00 0.00 38 1015.6
20220527055436 66 285 8.0 10.0 0.00 0.00 0.00 43 1015.6
20220527054934 66 283 8.0 13.0 0.00 0.00 0.00 42 1015.5
20220527054434 66 252 7.0 8.0 0.00 0.00 0.00 42 1015.8
20220527053933 67 277 12.0 16.0 0.00 0.00 0.00 43 1015.5
20220527053433 67 298 10.0 14.0 0.00 0.00 0.00 43 1015.6
20220527052931 67 283 9.0 9.0 0.00 0.00 0.00 42 1015.4
20220527052430 68 289 7.0 10.0 0.00 0.00 0.00 41 1015.5
20220527051929 68 313 12.0 17.0 0.00 0.00 0.00 40 1015.3
20220527051429 69 305 8.0 9.0 0.00 0.00 0.00 37 1015.5
20220527050929 69 331 7.0 8.0 0.00 0.00 0.00 37 1015.0
20220527050429 68 293 5.0 7.0 0.00 0.00 0.00 34 1015.2
20220527045928 68 66 4.0 5.0 0.00 0.00 0.00 38 1014.7
20220527045427 68 308 3.0 5.0 0.00 0.00 0.00 38 1014.9
20220527044927 69 246 3.0 6.0 0.00 0.00 0.00 32 1014.8
20220527044427 69 196 8.0 11.0 0.00 0.00 0.00 33 1014.6
20220527043925 69 226 11.0 18.0 0.00 0.00 0.00 34 1014.5
20220527043425 69 218 19.0 25.0 0.00 0.00 0.00 36 1014.1
20220527042924 69 229 15.0 22.0 0.00 0.00 0.00 35 1013.9
20220527042424 68 247 16.0 22.0 0.00 0.00 0.00 37 1013.9
20220527041923 69 221 20.0 24.0 0.00 0.00 0.00 37 1013.5
20220527041422 68 222 17.0 26.0 0.00 0.00 0.00 38 1013.8
20220527040921 68 232 24.0 27.0 0.00 0.00 0.00 40 1013.6
20220527040420 68 225 19.0 26.0 0.00 0.00 0.00 41 1013.9
20220527035920 68 240 23.0 26.0 0.00 0.00 0.00 40 1013.9
20220527035418 68 241 21.0 25.0 0.00 0.00 0.00 39 1014.1
20220527034918 69 237 21.0 25.0 0.00 0.00 0.00 37 1014.2
20220527034416 70 243 14.0 16.0 0.00 0.00 0.00 34 1014.3
20220527033915 70 231 23.0 29.0 0.00 0.00 0.00 32 1014.5
20220527033415 71 294 15.0 18.0 0.00 0.00 0.00 28 1014.0
20220527032914 71 228 11.0 11.0 0.00 0.00 0.00 30 1014.1
20220527032414 70 245 6.0 7.0 0.00 0.00 0.00 31 1014.2
20220527031913 67 276 3.0 5.0 0.00 0.00 0.00 53 1014.2
20220527031412 68 324 10.0 13.0 0.00 0.00 0.00 53 1014.1
20220527030910 71 273 10.0 11.0 0.00 0.00 0.00 44 1014.2
20220527030409 71 239 4.0 6.0 0.00 0.00 0.00 42 1014.1
20220527025906 71 294 12.0 14.0 0.00 0.00 0.00 33 1014.0
20220527025405 71 332 10.0 11.0 0.00 0.00 0.00 34 1013.9
20220527024904 72 278 3.0 3.0 0.00 0.00 0.00 34 1013.6
20220527024402 72 270 12.0 14.0 0.00 0.00 0.00 33 1013.6
20220527023901 72 275 5.0 7.0 0.00 0.00 0.00 35 1013.4
20220527023401 72 272 11.0 13.0 0.00 0.00 0.00 35 1013.3
20220527022859 72 274 9.0 10.0 0.00 0.00 0.00 30 1013.5
20220527022357 72 243 7.0 9.0 0.00 0.00 0.00 34 1013.5
20220527021857 73 277 10.0 13.0 0.00 0.00 0.00 33 1013.6
20220527021358 73 284 9.0 9.0 0.00 0.00 0.00 30 1013.4
20220527020857 74 297 11.0 14.0 0.00 0.00 0.00 29 1013.5
20220527020356 75 261 13.0 16.0 0.00 0.00 0.00 28 1013.5
20220527015854 75 251 9.0 11.0 0.00 0.00 0.00 26 1013.5
20220527015353 76 352 18.0 24.0 0.00 0.00 0.00 25 1013.4